sensor_id;sensor_type;location;lat;lon;timestamp;P1;durP1;ratioP1;P2;durP2;ratioP2
35745;SDS011;21870;42.812;74.628;2023-09-19T00:00:16;29.10;;;7.32;;
35745;SDS011;21870;42.812;74.628;2023-09-19T00:02:45;34.45;;;8.68;;
35745;SDS011;21870;42.812;74.628;2023-09-19T00:05:12;22.10;;;6.80;;
35745;SDS011;21870;42.812;74.628;2023-09-19T00:07:41;17.55;;;6.60;;
35745;SDS011;21870;42.812;74.628;2023-09-19T00:10:07;9.93;;;5.63;;
35745;SDS011;21870;42.812;74.628;2023-09-19T00:12:34;16.77;;;5.90;;
35745;SDS011;21870;42.812;74.628;2023-09-19T00:15:01;13.82;;;5.53;;
35745;SDS011;21870;42.812;74.628;2023-09-19T00:17:30;13.52;;;5.18;;
35745;SDS011;21870;42.812;74.628;2023-09-19T00:19:57;12.80;;;5.20;;
35745;SDS011;21870;42.812;74.628;2023-09-19T00:22:23;12.02;;;5.72;;
35745;SDS011;21870;42.812;74.628;2023-09-19T00:24:51;12.40;;;4.70;;
35745;SDS011;21870;42.812;74.628;2023-09-19T00:27:18;19.35;;;5.68;;
35745;SDS011;21870;42.812;74.628;2023-09-19T00:29:44;12.63;;;4.85;;
35745;SDS011;21870;42.812;74.628;2023-09-19T00:32:10;10.63;;;5.70;;
35745;SDS011;21870;42.812;74.628;2023-09-19T00:34:36;10.98;;;4.80;;
35745;SDS011;21870;42.812;74.628;2023-09-19T00:37:02;18.33;;;5.70;;
35745;SDS011;21870;42.812;74.628;2023-09-19T00:39:29;15.95;;;5.93;;
35745;SDS011;21870;42.812;74.628;2023-09-19T00:41:56;13.45;;;5.97;;
35745;SDS011;21870;42.812;74.628;2023-09-19T00:44:23;17.83;;;5.72;;
35745;SDS011;21870;42.812;74.628;2023-09-19T00:46:49;10.73;;;5.32;;
35745;SDS011;21870;42.812;74.628;2023-09-19T00:49:16;20.58;;;5.60;;
35745;SDS011;21870;42.812;74.628;2023-09-19T00:51:45;13.25;;;5.90;;
35745;SDS011;21870;42.812;74.628;2023-09-19T00:54:12;17.30;;;6.22;;
35745;SDS011;21870;42.812;74.628;2023-09-19T00:56:43;23.05;;;6.75;;
35745;SDS011;21870;42.812;74.628;2023-09-19T00:59:11;20.85;;;6.95;;
35745;SDS011;21870;42.812;74.628;2023-09-19T01:01:37;16.65;;;5.85;;
35745;SDS011;21870;42.812;74.628;2023-09-19T01:04:05;19.75;;;6.25;;
35745;SDS011;21870;42.812;74.628;2023-09-19T01:06:31;17.25;;;6.00;;
35745;SDS011;21870;42.812;74.628;2023-09-19T01:08:58;16.65;;;6.25;;
35745;SDS011;21870;42.812;74.628;2023-09-19T01:11:35;14.90;;;6.47;;
35745;SDS011;21870;42.812;74.628;2023-09-19T01:14:13;21.00;;;7.35;;
35745;SDS011;21870;42.812;74.628;2023-09-19T01:16:46;13.90;;;6.07;;
35745;SDS011;21870;42.812;74.628;2023-09-19T01:19:42;19.17;;;11.70;;
35745;SDS011;21870;42.812;74.628;2023-09-19T01:31:19;12.95;;;5.13;;
35745;SDS011;21870;42.812;74.628;2023-09-19T01:34:01;16.52;;;5.32;;
35745;SDS011;21870;42.812;74.628;2023-09-19T01:36:34;16.27;;;5.70;;
35745;SDS011;21870;42.812;74.628;2023-09-19T01:39:07;15.52;;;5.85;;
35745;SDS011;21870;42.812;74.628;2023-09-19T01:41:43;22.67;;;5.57;;
35745;SDS011;21870;42.812;74.628;2023-09-19T01:44:12;9.68;;;5.38;;
35745;SDS011;21870;42.812;74.628;2023-09-19T01:46:48;12.52;;;5.97;;
35745;SDS011;21870;42.812;74.628;2023-09-19T01:52:09;21.00;;;6.75;;
35745;SDS011;21870;42.812;74.628;2023-09-19T01:54:51;16.10;;;6.45;;
35745;SDS011;21870;42.812;74.628;2023-09-19T02:00:00;15.57;;;5.43;;
35745;SDS011;21870;42.812;74.628;2023-09-19T02:02:40;23.30;;;6.68;;
35745;SDS011;21870;42.812;74.628;2023-09-19T02:05:10;18.42;;;5.97;;
35745;SDS011;21870;42.812;74.628;2023-09-19T02:07:37;20.30;;;6.18;;
35745;SDS011;21870;42.812;74.628;2023-09-19T02:10:06;22.85;;;6.50;;
35745;SDS011;21870;42.812;74.628;2023-09-19T02:12:33;23.58;;;6.53;;
35745;SDS011;21870;42.812;74.628;2023-09-19T02:15:00;13.02;;;6.68;;
35745;SDS011;21870;42.812;74.628;2023-09-19T02:17:26;15.40;;;5.65;;
35745;SDS011;21870;42.812;74.628;2023-09-19T02:19:53;28.05;;;7.68;;
35745;SDS011;21870;42.812;74.628;2023-09-19T02:22:20;20.67;;;6.03;;
35745;SDS011;21870;42.812;74.628;2023-09-19T02:24:48;19.65;;;6.72;;
35745;SDS011;21870;42.812;74.628;2023-09-19T02:27:14;18.30;;;7.50;;
35745;SDS011;21870;42.812;74.628;2023-09-19T02:29:41;21.10;;;6.82;;
35745;SDS011;21870;42.812;74.628;2023-09-19T02:32:07;23.15;;;8.20;;
35745;SDS011;21870;42.812;74.628;2023-09-19T02:34:36;23.15;;;6.18;;
35745;SDS011;21870;42.812;74.628;2023-09-19T02:37:04;21.30;;;7.50;;
35745;SDS011;21870;42.812;74.628;2023-09-19T02:39:31;24.73;;;6.70;;
35745;SDS011;21870;42.812;74.628;2023-09-19T02:41:57;18.30;;;5.95;;
35745;SDS011;21870;42.812;74.628;2023-09-19T02:44:23;22.95;;;6.25;;
35745;SDS011;21870;42.812;74.628;2023-09-19T02:46:50;17.77;;;6.47;;
35745;SDS011;21870;42.812;74.628;2023-09-19T02:49:16;15.25;;;6.10;;
35745;SDS011;21870;42.812;74.628;2023-09-19T02:51:45;16.05;;;6.20;;
35745;SDS011;21870;42.812;74.628;2023-09-19T02:54:12;27.17;;;6.28;;
35745;SDS011;21870;42.812;74.628;2023-09-19T02:56:38;23.77;;;7.13;;
35745;SDS011;21870;42.812;74.628;2023-09-19T02:59:05;34.08;;;10.23;;
35745;SDS011;21870;42.812;74.628;2023-09-19T03:01:32;30.77;;;8.65;;
35745;SDS011;21870;42.812;74.628;2023-09-19T03:03:59;41.10;;;10.50;;
35745;SDS011;21870;42.812;74.628;2023-09-19T03:06:25;42.45;;;9.60;;
35745;SDS011;21870;42.812;74.628;2023-09-19T03:08:51;29.48;;;8.93;;
35745;SDS011;21870;42.812;74.628;2023-09-19T03:11:17;35.72;;;9.15;;
35745;SDS011;21870;42.812;74.628;2023-09-19T03:13:53;26.17;;;7.55;;
35745;SDS011;21870;42.812;74.628;2023-09-19T03:16:20;28.75;;;7.78;;
35745;SDS011;21870;42.812;74.628;2023-09-19T03:18:50;25.08;;;8.65;;
35745;SDS011;21870;42.812;74.628;2023-09-19T03:21:16;20.10;;;8.18;;
35745;SDS011;21870;42.812;74.628;2023-09-19T03:23:44;15.52;;;7.57;;
35745;SDS011;21870;42.812;74.628;2023-09-19T03:26:11;18.13;;;7.85;;
35745;SDS011;21870;42.812;74.628;2023-09-19T03:28:39;22.00;;;10.85;;
35745;SDS011;21870;42.812;74.628;2023-09-19T03:31:06;21.63;;;10.85;;
35745;SDS011;21870;42.812;74.628;2023-09-19T03:33:32;31.02;;;13.43;;
35745;SDS011;21870;42.812;74.628;2023-09-19T03:35:59;23.27;;;11.93;;
35745;SDS011;21870;42.812;74.628;2023-09-19T03:38:26;29.70;;;12.57;;
35745;SDS011;21870;42.812;74.628;2023-09-19T03:40:56;25.67;;;11.75;;
35745;SDS011;21870;42.812;74.628;2023-09-19T03:43:22;25.90;;;11.15;;
35745;SDS011;21870;42.812;74.628;2023-09-19T03:45:48;17.67;;;10.00;;
35745;SDS011;21870;42.812;74.628;2023-09-19T03:48:16;27.90;;;10.52;;
35745;SDS011;21870;42.812;74.628;2023-09-19T03:50:42;25.50;;;9.18;;
35745;SDS011;21870;42.812;74.628;2023-09-19T03:53:11;28.65;;;7.97;;
35745;SDS011;21870;42.812;74.628;2023-09-19T03:55:37;21.45;;;6.18;;
35745;SDS011;21870;42.812;74.628;2023-09-19T03:58:06;9.25;;;5.80;;
35745;SDS011;21870;42.812;74.628;2023-09-19T04:00:32;18.00;;;5.68;;
35745;SDS011;21870;42.812;74.628;2023-09-19T04:02:59;19.77;;;6.15;;
35745;SDS011;21870;42.812;74.628;2023-09-19T04:05:30;18.30;;;5.75;;
35745;SDS011;21870;42.812;74.628;2023-09-19T04:07:56;21.90;;;6.45;;
35745;SDS011;21870;42.812;74.628;2023-09-19T04:10:22;18.55;;;6.32;;
35745;SDS011;21870;42.812;74.628;2023-09-19T04:12:52;14.63;;;5.80;;
35745;SDS011;21870;42.812;74.628;2023-09-19T04:15:19;33.08;;;6.75;;
35745;SDS011;21870;42.812;74.628;2023-09-19T04:17:47;23.88;;;6.63;;
35745;SDS011;21870;42.812;74.628;2023-09-19T04:20:15;42.00;;;8.10;;
35745;SDS011;21870;42.812;74.628;2023-09-19T04:22:43;17.98;;;5.50;;
35745;SDS011;21870;42.812;74.628;2023-09-19T04:25:09;27.55;;;7.03;;
35745;SDS011;21870;42.812;74.628;2023-09-19T04:27:35;27.27;;;6.00;;
35745;SDS011;21870;42.812;74.628;2023-09-19T04:30:01;17.85;;;5.95;;
35745;SDS011;21870;42.812;74.628;2023-09-19T04:32:29;33.70;;;6.50;;
35745;SDS011;21870;42.812;74.628;2023-09-19T04:34:57;18.58;;;5.55;;
35745;SDS011;21870;42.812;74.628;2023-09-19T04:37:25;18.08;;;6.32;;
35745;SDS011;21870;42.812;74.628;2023-09-19T04:39:51;22.50;;;5.75;;
35745;SDS011;21870;42.812;74.628;2023-09-19T04:42:17;17.98;;;5.32;;
35745;SDS011;21870;42.812;74.628;2023-09-19T04:44:44;17.92;;;5.22;;
35745;SDS011;21870;42.812;74.628;2023-09-19T04:47:10;19.48;;;5.80;;
35745;SDS011;21870;42.812;74.628;2023-09-19T04:49:37;16.30;;;5.80;;
35745;SDS011;21870;42.812;74.628;2023-09-19T04:52:05;22.45;;;6.28;;
35745;SDS011;21870;42.812;74.628;2023-09-19T04:54:31;17.40;;;5.82;;
35745;SDS011;21870;42.812;74.628;2023-09-19T04:56:59;16.98;;;6.03;;
35745;SDS011;21870;42.812;74.628;2023-09-19T04:59:28;16.17;;;5.80;;
35745;SDS011;21870;42.812;74.628;2023-09-19T05:01:54;19.73;;;5.85;;
35745;SDS011;21870;42.812;74.628;2023-09-19T05:04:21;44.83;;;7.57;;
35745;SDS011;21870;42.812;74.628;2023-09-19T05:06:47;12.27;;;5.20;;
35745;SDS011;21870;42.812;74.628;2023-09-19T05:09:13;12.50;;;5.10;;
35745;SDS011;21870;42.812;74.628;2023-09-19T05:11:40;12.48;;;4.82;;
35745;SDS011;21870;42.812;74.628;2023-09-19T05:14:06;19.42;;;5.53;;
35745;SDS011;21870;42.812;74.628;2023-09-19T05:16:32;21.50;;;6.13;;
35745;SDS011;21870;42.812;74.628;2023-09-19T05:18:58;24.10;;;6.03;;
35745;SDS011;21870;42.812;74.628;2023-09-19T05:21:25;11.73;;;4.85;;
35745;SDS011;21870;42.812;74.628;2023-09-19T05:23:55;22.30;;;5.15;;
35745;SDS011;21870;42.812;74.628;2023-09-19T05:26:21;11.18;;;4.70;;
35745;SDS011;21870;42.812;74.628;2023-09-19T05:28:47;13.30;;;5.13;;
35745;SDS011;21870;42.812;74.628;2023-09-19T05:31:13;15.60;;;5.22;;
35745;SDS011;21870;42.812;74.628;2023-09-19T05:33:41;11.82;;;4.72;;
35745;SDS011;21870;42.812;74.628;2023-09-19T05:36:07;11.45;;;4.35;;
35745;SDS011;21870;42.812;74.628;2023-09-19T05:38:36;7.57;;;4.65;;
35745;SDS011;21870;42.812;74.628;2023-09-19T05:41:02;11.90;;;4.60;;
35745;SDS011;21870;42.812;74.628;2023-09-19T05:43:28;14.98;;;4.50;;
35745;SDS011;21870;42.812;74.628;2023-09-19T05:45:54;13.77;;;4.80;;
35745;SDS011;21870;42.812;74.628;2023-09-19T05:48:21;17.42;;;4.97;;
35745;SDS011;21870;42.812;74.628;2023-09-19T05:50:47;13.50;;;4.70;;
35745;SDS011;21870;42.812;74.628;2023-09-19T05:53:16;12.77;;;4.55;;
35745;SDS011;21870;42.812;74.628;2023-09-19T05:55:43;10.77;;;4.65;;
35745;SDS011;21870;42.812;74.628;2023-09-19T05:58:10;16.75;;;5.20;;
35745;SDS011;21870;42.812;74.628;2023-09-19T06:00:39;16.55;;;4.97;;
35745;SDS011;21870;42.812;74.628;2023-09-19T06:03:08;14.20;;;5.05;;
35745;SDS011;21870;42.812;74.628;2023-09-19T06:05:34;14.13;;;5.45;;
35745;SDS011;21870;42.812;74.628;2023-09-19T06:08:00;16.83;;;5.03;;
35745;SDS011;21870;42.812;74.628;2023-09-19T06:10:33;15.52;;;5.15;;
35745;SDS011;21870;42.812;74.628;2023-09-19T06:13:00;14.82;;;6.13;;
35745;SDS011;21870;42.812;74.628;2023-09-19T06:15:31;13.73;;;5.90;;
35745;SDS011;21870;42.812;74.628;2023-09-19T06:17:58;12.93;;;5.25;;
35745;SDS011;21870;42.812;74.628;2023-09-19T06:20:25;27.33;;;6.65;;
35745;SDS011;21870;42.812;74.628;2023-09-19T06:22:51;13.05;;;5.35;;
35745;SDS011;21870;42.812;74.628;2023-09-19T06:25:18;21.02;;;6.43;;
35745;SDS011;21870;42.812;74.628;2023-09-19T06:27:48;14.00;;;5.78;;
35745;SDS011;21870;42.812;74.628;2023-09-19T06:30:17;16.70;;;6.20;;
35745;SDS011;21870;42.812;74.628;2023-09-19T06:32:44;15.93;;;6.20;;
35745;SDS011;21870;42.812;74.628;2023-09-19T06:35:14;19.30;;;6.03;;
35745;SDS011;21870;42.812;74.628;2023-09-19T06:37:41;23.88;;;6.38;;
35745;SDS011;21870;42.812;74.628;2023-09-19T06:40:11;14.98;;;7.05;;
35745;SDS011;21870;42.812;74.628;2023-09-19T06:42:40;17.92;;;6.70;;
35745;SDS011;21870;42.812;74.628;2023-09-19T06:45:12;15.02;;;6.03;;
35745;SDS011;21870;42.812;74.628;2023-09-19T06:47:43;17.88;;;6.80;;
35745;SDS011;21870;42.812;74.628;2023-09-19T06:50:19;16.58;;;5.93;;
35745;SDS011;21870;42.812;74.628;2023-09-19T06:52:48;17.30;;;6.28;;
35745;SDS011;21870;42.812;74.628;2023-09-19T06:55:17;23.13;;;7.43;;
35745;SDS011;21870;42.812;74.628;2023-09-19T06:57:47;15.40;;;4.95;;
35745;SDS011;21870;42.812;74.628;2023-09-19T07:00:14;29.67;;;7.07;;
35745;SDS011;21870;42.812;74.628;2023-09-19T07:03:05;16.95;;;6.07;;
35745;SDS011;21870;42.812;74.628;2023-09-19T07:05:34;22.15;;;5.35;;
35745;SDS011;21870;42.812;74.628;2023-09-19T07:08:04;13.25;;;5.25;;
35745;SDS011;21870;42.812;74.628;2023-09-19T07:10:36;12.60;;;6.10;;
35745;SDS011;21870;42.812;74.628;2023-09-19T07:13:02;17.25;;;5.18;;
35745;SDS011;21870;42.812;74.628;2023-09-19T07:15:34;20.05;;;5.25;;
35745;SDS011;21870;42.812;74.628;2023-09-19T07:18:04;17.60;;;4.68;;
35745;SDS011;21870;42.812;74.628;2023-09-19T07:20:31;8.07;;;4.63;;
35745;SDS011;21870;42.812;74.628;2023-09-19T07:22:58;13.32;;;5.00;;
35745;SDS011;21870;42.812;74.628;2023-09-19T07:25:25;25.98;;;6.78;;
35745;SDS011;21870;42.812;74.628;2023-09-19T07:27:52;10.27;;;4.93;;
35745;SDS011;21870;42.812;74.628;2023-09-19T07:30:20;18.35;;;5.82;;
35745;SDS011;21870;42.812;74.628;2023-09-19T07:32:46;15.15;;;5.50;;
35745;SDS011;21870;42.812;74.628;2023-09-19T07:35:12;13.80;;;5.40;;
35745;SDS011;21870;42.812;74.628;2023-09-19T07:37:40;12.48;;;5.47;;
35745;SDS011;21870;42.812;74.628;2023-09-19T07:40:06;21.35;;;6.18;;
35745;SDS011;21870;42.812;74.628;2023-09-19T07:42:34;12.75;;;5.50;;
35745;SDS011;21870;42.812;74.628;2023-09-19T07:45:02;17.27;;;5.47;;
35745;SDS011;21870;42.812;74.628;2023-09-19T07:47:28;12.30;;;5.35;;
35745;SDS011;21870;42.812;74.628;2023-09-19T07:49:55;14.25;;;4.85;;
35745;SDS011;21870;42.812;74.628;2023-09-19T07:52:21;14.40;;;5.22;;
35745;SDS011;21870;42.812;74.628;2023-09-19T07:54:48;15.88;;;5.35;;
35745;SDS011;21870;42.812;74.628;2023-09-19T07:57:14;24.98;;;7.03;;
35745;SDS011;21870;42.812;74.628;2023-09-19T07:59:41;19.77;;;5.70;;
35745;SDS011;21870;42.812;74.628;2023-09-19T08:02:08;15.70;;;4.63;;
35745;SDS011;21870;42.812;74.628;2023-09-19T08:04:43;13.02;;;6.00;;
35745;SDS011;21870;42.812;74.628;2023-09-19T08:07:12;27.20;;;6.68;;
35745;SDS011;21870;42.812;74.628;2023-09-19T08:09:41;16.15;;;5.95;;
35745;SDS011;21870;42.812;74.628;2023-09-19T08:12:11;14.82;;;4.85;;
35745;SDS011;21870;42.812;74.628;2023-09-19T08:14:37;24.90;;;7.35;;
35745;SDS011;21870;42.812;74.628;2023-09-19T08:17:06;21.05;;;5.20;;
35745;SDS011;21870;42.812;74.628;2023-09-19T08:19:35;11.90;;;5.63;;
35745;SDS011;21870;42.812;74.628;2023-09-19T08:22:02;17.05;;;5.30;;
35745;SDS011;21870;42.812;74.628;2023-09-19T08:24:28;20.85;;;5.32;;
35745;SDS011;21870;42.812;74.628;2023-09-19T08:26:55;17.73;;;5.30;;
35745;SDS011;21870;42.812;74.628;2023-09-19T08:29:22;15.10;;;5.18;;
35745;SDS011;21870;42.812;74.628;2023-09-19T08:31:56;17.50;;;5.72;;
35745;SDS011;21870;42.812;74.628;2023-09-19T08:34:23;11.55;;;5.65;;
35745;SDS011;21870;42.812;74.628;2023-09-19T08:36:53;21.83;;;5.38;;
35745;SDS011;21870;42.812;74.628;2023-09-19T08:39:23;16.38;;;5.68;;
35745;SDS011;21870;42.812;74.628;2023-09-19T08:41:59;15.15;;;5.63;;
35745;SDS011;21870;42.812;74.628;2023-09-19T08:44:26;17.75;;;5.47;;
35745;SDS011;21870;42.812;74.628;2023-09-19T08:47:02;18.73;;;5.50;;
35745;SDS011;21870;42.812;74.628;2023-09-19T08:52:44;17.15;;;5.30;;
35745;SDS011;21870;42.812;74.628;2023-09-19T08:55:13;15.05;;;5.38;;
35745;SDS011;21870;42.812;74.628;2023-09-19T08:57:48;21.20;;;6.93;;
35745;SDS011;21870;42.812;74.628;2023-09-19T09:00:16;24.00;;;6.47;;
35745;SDS011;21870;42.812;74.628;2023-09-19T09:02:43;23.70;;;6.60;;
35745;SDS011;21870;42.812;74.628;2023-09-19T09:05:10;24.77;;;5.30;;
35745;SDS011;21870;42.812;74.628;2023-09-19T09:07:37;30.42;;;6.65;;
35745;SDS011;21870;42.812;74.628;2023-09-19T09:10:04;28.13;;;6.65;;
35745;SDS011;21870;42.812;74.628;2023-09-19T09:12:30;17.60;;;5.40;;
35745;SDS011;21870;42.812;74.628;2023-09-19T09:14:56;21.48;;;5.32;;
35745;SDS011;21870;42.812;74.628;2023-09-19T09:17:23;14.50;;;5.45;;
35745;SDS011;21870;42.812;74.628;2023-09-19T09:19:52;46.08;;;8.20;;
35745;SDS011;21870;42.812;74.628;2023-09-19T09:22:18;41.13;;;8.23;;
35745;SDS011;21870;42.812;74.628;2023-09-19T09:24:56;39.47;;;7.82;;
35745;SDS011;21870;42.812;74.628;2023-09-19T09:27:30;25.95;;;6.60;;
35745;SDS011;21870;42.812;74.628;2023-09-19T09:29:57;17.70;;;5.47;;
35745;SDS011;21870;42.812;74.628;2023-09-19T09:32:24;19.83;;;5.70;;
35745;SDS011;21870;42.812;74.628;2023-09-19T09:34:52;21.00;;;5.47;;
35745;SDS011;21870;42.812;74.628;2023-09-19T09:37:20;24.20;;;5.35;;
35745;SDS011;21870;42.812;74.628;2023-09-19T09:39:54;19.98;;;5.28;;
35745;SDS011;21870;42.812;74.628;2023-09-19T09:42:33;37.30;;;7.85;;
35745;SDS011;21870;42.812;74.628;2023-09-19T09:45:20;17.85;;;4.60;;
35745;SDS011;21870;42.812;74.628;2023-09-19T09:47:59;21.70;;;5.45;;
35745;SDS011;21870;42.812;74.628;2023-09-19T09:50:32;21.10;;;5.97;;
35745;SDS011;21870;42.812;74.628;2023-09-19T09:53:20;24.20;;;6.22;;
35745;SDS011;21870;42.812;74.628;2023-09-19T09:56:02;18.75;;;5.60;;
35745;SDS011;21870;42.812;74.628;2023-09-19T09:58:32;30.48;;;6.20;;
35745;SDS011;21870;42.812;74.628;2023-09-19T10:01:03;13.55;;;4.95;;
35745;SDS011;21870;42.812;74.628;2023-09-19T10:03:40;12.10;;;4.97;;
35745;SDS011;21870;42.812;74.628;2023-09-19T10:06:15;15.25;;;5.13;;
35745;SDS011;21870;42.812;74.628;2023-09-19T10:09:01;16.13;;;5.25;;
35745;SDS011;21870;42.812;74.628;2023-09-19T10:11:44;22.10;;;4.88;;
35745;SDS011;21870;42.812;74.628;2023-09-19T10:14:24;16.90;;;4.60;;
35745;SDS011;21870;42.812;74.628;2023-09-19T10:16:57;19.48;;;4.60;;
35745;SDS011;21870;42.812;74.628;2023-09-19T10:19:53;27.80;;;5.75;;
35745;SDS011;21870;42.812;74.628;2023-09-19T10:22:24;16.80;;;4.20;;
35745;SDS011;21870;42.812;74.628;2023-09-19T10:24:55;14.10;;;5.05;;
35745;SDS011;21870;42.812;74.628;2023-09-19T10:27:22;20.90;;;5.45;;
35745;SDS011;21870;42.812;74.628;2023-09-19T10:29:51;43.17;;;5.78;;
35745;SDS011;21870;42.812;74.628;2023-09-19T10:32:23;17.25;;;4.95;;
35745;SDS011;21870;42.812;74.628;2023-09-19T10:34:50;28.13;;;5.55;;
35745;SDS011;21870;42.812;74.628;2023-09-19T10:37:20;27.50;;;6.43;;
35745;SDS011;21870;42.812;74.628;2023-09-19T10:39:51;29.33;;;6.10;;
35745;SDS011;21870;42.812;74.628;2023-09-19T10:42:19;20.85;;;5.22;;
35745;SDS011;21870;42.812;74.628;2023-09-19T10:44:47;18.90;;;5.05;;
35745;SDS011;21870;42.812;74.628;2023-09-19T10:47:21;19.20;;;5.38;;
35745;SDS011;21870;42.812;74.628;2023-09-19T10:49:49;17.35;;;5.38;;
35745;SDS011;21870;42.812;74.628;2023-09-19T10:52:17;47.22;;;6.90;;
35745;SDS011;21870;42.812;74.628;2023-09-19T10:54:50;34.63;;;5.90;;
35745;SDS011;21870;42.812;74.628;2023-09-19T10:57:23;14.43;;;5.07;;
35745;SDS011;21870;42.812;74.628;2023-09-19T11:00:02;16.58;;;5.43;;
35745;SDS011;21870;42.812;74.628;2023-09-19T11:06:01;20.70;;;4.63;;
35745;SDS011;21870;42.812;74.628;2023-09-19T11:30:38;14.27;;;5.10;;
35745;SDS011;21870;42.812;74.628;2023-09-19T11:43:53;28.92;;;6.00;;
35745;SDS011;21870;42.812;74.628;2023-09-19T11:46:29;19.30;;;4.88;;
35745;SDS011;21870;42.812;74.628;2023-09-19T11:49:04;21.45;;;5.55;;
35745;SDS011;21870;42.812;74.628;2023-09-19T11:51:41;35.50;;;6.65;;
35745;SDS011;21870;42.812;74.628;2023-09-19T11:54:13;32.55;;;6.97;;
35745;SDS011;21870;42.812;74.628;2023-09-19T11:57:00;24.38;;;5.97;;
35745;SDS011;21870;42.812;74.628;2023-09-19T11:59:30;33.95;;;6.22;;
35745;SDS011;21870;42.812;74.628;2023-09-19T12:01:57;21.27;;;5.90;;
35745;SDS011;21870;42.812;74.628;2023-09-19T12:07:06;19.42;;;5.20;;
35745;SDS011;21870;42.812;74.628;2023-09-19T12:09:41;45.95;;;6.68;;
35745;SDS011;21870;42.812;74.628;2023-09-19T12:15:14;45.35;;;8.13;;
35745;SDS011;21870;42.812;74.628;2023-09-19T12:17:47;47.67;;;7.07;;
35745;SDS011;21870;42.812;74.628;2023-09-19T12:20:14;23.95;;;5.95;;
35745;SDS011;21870;42.812;74.628;2023-09-19T12:25:11;30.60;;;7.55;;
35745;SDS011;21870;42.812;74.628;2023-09-19T12:27:42;28.85;;;7.07;;
35745;SDS011;21870;42.812;74.628;2023-09-19T12:30:09;19.58;;;6.00;;
35745;SDS011;21870;42.812;74.628;2023-09-19T12:32:39;21.52;;;5.97;;
35745;SDS011;21870;42.812;74.628;2023-09-19T12:35:07;18.98;;;6.57;;
35745;SDS011;21870;42.812;74.628;2023-09-19T12:37:36;14.45;;;6.07;;
35745;SDS011;21870;42.812;74.628;2023-09-19T12:40:07;18.63;;;6.55;;
35745;SDS011;21870;42.812;74.628;2023-09-19T12:42:43;22.55;;;5.50;;
35745;SDS011;21870;42.812;74.628;2023-09-19T12:45:10;20.80;;;5.50;;
35745;SDS011;21870;42.812;74.628;2023-09-19T12:47:40;15.05;;;4.97;;
35745;SDS011;21870;42.812;74.628;2023-09-19T12:50:26;16.17;;;4.43;;
35745;SDS011;21870;42.812;74.628;2023-09-19T12:52:55;20.15;;;4.80;;
35745;SDS011;21870;42.812;74.628;2023-09-19T12:55:26;25.50;;;5.88;;
35745;SDS011;21870;42.812;74.628;2023-09-19T12:58:02;17.70;;;5.63;;
35745;SDS011;21870;42.812;74.628;2023-09-19T13:00:40;16.58;;;5.03;;
35745;SDS011;21870;42.812;74.628;2023-09-19T13:05:51;40.67;;;6.45;;
35745;SDS011;21870;42.812;74.628;2023-09-19T13:08:29;28.30;;;6.05;;
35745;SDS011;21870;42.812;74.628;2023-09-19T13:19:41;11.73;;;5.15;;
35745;SDS011;21870;42.812;74.628;2023-09-19T13:25:13;12.00;;;5.45;;
35745;SDS011;21870;42.812;74.628;2023-09-19T13:27:43;17.23;;;5.15;;
35745;SDS011;21870;42.812;74.628;2023-09-19T13:30:11;14.77;;;5.53;;
35745;SDS011;21870;42.812;74.628;2023-09-19T13:32:38;17.45;;;5.18;;
35745;SDS011;21870;42.812;74.628;2023-09-19T13:35:06;14.90;;;5.65;;
35745;SDS011;21870;42.812;74.628;2023-09-19T13:37:35;45.88;;;8.60;;
35745;SDS011;21870;42.812;74.628;2023-09-19T13:40:09;35.50;;;7.85;;
35745;SDS011;21870;42.812;74.628;2023-09-19T13:42:36;29.67;;;7.32;;
35745;SDS011;21870;42.812;74.628;2023-09-19T13:45:03;23.50;;;7.10;;
35745;SDS011;21870;42.812;74.628;2023-09-19T13:47:30;13.23;;;5.78;;
35745;SDS011;21870;42.812;74.628;2023-09-19T13:49:58;19.40;;;6.03;;
35745;SDS011;21870;42.812;74.628;2023-09-19T13:52:25;25.40;;;7.72;;
35745;SDS011;21870;42.812;74.628;2023-09-19T13:54:54;19.55;;;6.68;;
35745;SDS011;21870;42.812;74.628;2023-09-19T13:57:23;17.25;;;5.50;;
35745;SDS011;21870;42.812;74.628;2023-09-19T13:59:50;18.00;;;6.03;;
35745;SDS011;21870;42.812;74.628;2023-09-19T14:02:19;15.15;;;5.90;;
35745;SDS011;21870;42.812;74.628;2023-09-19T14:04:48;25.52;;;7.85;;
35745;SDS011;21870;42.812;74.628;2023-09-19T14:07:15;18.30;;;6.00;;
35745;SDS011;21870;42.812;74.628;2023-09-19T14:09:43;18.20;;;5.95;;
35745;SDS011;21870;42.812;74.628;2023-09-19T14:12:09;15.45;;;5.82;;
35745;SDS011;21870;42.812;74.628;2023-09-19T14:14:35;18.80;;;6.15;;
35745;SDS011;21870;42.812;74.628;2023-09-19T14:17:02;18.63;;;5.72;;
35745;SDS011;21870;42.812;74.628;2023-09-19T14:19:29;18.67;;;6.60;;
35745;SDS011;21870;42.812;74.628;2023-09-19T14:21:55;17.38;;;7.90;;
35745;SDS011;21870;42.812;74.628;2023-09-19T14:24:22;17.55;;;7.10;;
35745;SDS011;21870;42.812;74.628;2023-09-19T14:26:48;18.95;;;7.95;;
35745;SDS011;21870;42.812;74.628;2023-09-19T14:29:15;17.38;;;7.32;;
35745;SDS011;21870;42.812;74.628;2023-09-19T14:31:42;29.23;;;9.32;;
35745;SDS011;21870;42.812;74.628;2023-09-19T14:34:08;16.15;;;7.72;;
35745;SDS011;21870;42.812;74.628;2023-09-19T14:36:35;14.75;;;6.95;;
35745;SDS011;21870;42.812;74.628;2023-09-19T14:39:04;17.98;;;6.75;;
35745;SDS011;21870;42.812;74.628;2023-09-19T14:41:30;19.13;;;7.68;;
35745;SDS011;21870;42.812;74.628;2023-09-19T14:43:57;17.08;;;6.05;;
35745;SDS011;21870;42.812;74.628;2023-09-19T14:46:23;14.20;;;5.50;;
35745;SDS011;21870;42.812;74.628;2023-09-19T14:48:52;13.88;;;6.15;;
35745;SDS011;21870;42.812;74.628;2023-09-19T14:51:18;12.05;;;6.00;;
35745;SDS011;21870;42.812;74.628;2023-09-19T14:53:45;10.10;;;4.78;;
35745;SDS011;21870;42.812;74.628;2023-09-19T14:56:12;11.40;;;6.18;;
35745;SDS011;21870;42.812;74.628;2023-09-19T14:58:43;13.93;;;6.15;;
35745;SDS011;21870;42.812;74.628;2023-09-19T15:01:10;15.82;;;6.30;;
35745;SDS011;21870;42.812;74.628;2023-09-19T15:03:38;15.40;;;6.13;;
35745;SDS011;21870;42.812;74.628;2023-09-19T15:06:05;14.88;;;6.30;;
35745;SDS011;21870;42.812;74.628;2023-09-19T15:08:34;9.27;;;5.78;;
35745;SDS011;21870;42.812;74.628;2023-09-19T15:11:06;11.20;;;6.50;;
35745;SDS011;21870;42.812;74.628;2023-09-19T15:13:33;16.15;;;6.05;;
35745;SDS011;21870;42.812;74.628;2023-09-19T15:16:03;19.20;;;6.03;;
35745;SDS011;21870;42.812;74.628;2023-09-19T15:18:33;16.95;;;5.70;;
35745;SDS011;21870;42.812;74.628;2023-09-19T15:21:05;15.88;;;6.07;;
35745;SDS011;21870;42.812;74.628;2023-09-19T15:23:32;13.25;;;5.97;;
35745;SDS011;21870;42.812;74.628;2023-09-19T15:26:02;12.43;;;6.25;;
35745;SDS011;21870;42.812;74.628;2023-09-19T15:28:33;14.05;;;5.72;;
35745;SDS011;21870;42.812;74.628;2023-09-19T15:31:03;19.48;;;6.03;;
35745;SDS011;21870;42.812;74.628;2023-09-19T15:33:31;14.15;;;5.72;;
35745;SDS011;21870;42.812;74.628;2023-09-19T15:36:07;12.68;;;5.15;;
35745;SDS011;21870;42.812;74.628;2023-09-19T15:38:55;14.80;;;6.38;;
35745;SDS011;21870;42.812;74.628;2023-09-19T15:41:33;13.07;;;6.47;;
35745;SDS011;21870;42.812;74.628;2023-09-19T15:44:02;17.58;;;6.68;;
35745;SDS011;21870;42.812;74.628;2023-09-19T15:46:30;15.27;;;5.90;;
35745;SDS011;21870;42.812;74.628;2023-09-19T15:48:58;14.35;;;6.40;;